Race Results for
Henleyville Road Race
Corning, CA
(Event Information)
View By:
Road Race on 09/19/2010

Note: Ranking points are NOT upgrade points. An explanation of ranking points can be found here.


Men - Cat4/5 - Master - 45-99

 Place Points NameCity, StateTime USAC #BibTeam
1394.48Robert Kopitzke   Folsom, CA00:00.0 96397  664 Body Concepts
2402.63Greg McCormac   Danville, CA00:00.0 171823  672 Wells Fargo Racing
3410.77Richard Asturias   Pleasanton, CA00:00.0 236210  629 Tri Valley Velo
4418.92Kevin McMurtry   Nevada City, CA00:00.0 287169  673 SERT/Sho-Air
5427.07Keith Reed   Pleasanton, CA00:00.0 304119  683 Tri Valley Velo
6435.21Erle Martin   Saint Helena, CA00:00.0 210062  671 Cal Giant
7443.36Todd Peterson   Amador City, CA00:00.0 277762  678 Body Concepts
8451.51Matt Conidaris   Gold River, CA00:00.0 195944  635 Body Concepts
9459.65Todd Dambly   Folsom, CA00:00.0 212968  645 Bicycle Planet
10Leif PETERSON   00:00.0  695 
11Jeff SEYFRIED   00:00.0  696 
12484.09Ron Nelson   Martinez, CA00:00.0 257207  674 NA
13492.24John Gallagher   San Ramon, CA00:00.0 304284  655 Taleo Racing
14Keith LYON   00:00.0  670 
15508.53Gary Biehl   Sacramento, CA00:00.0 86778  634 
16516.68John Gerling   Modesto, CA00:00.0 218917  660 Fun Sport Bikes Cycling Team
17524.83Bob Loux   Modesto, CA00:00.0 287104  668 Fun Sports Bikes Cycling Team
18532.97Craig Dinger   Davis, CA00:00.0 305628  646 Davis Bike Club Race Team
19541.12James Allen   Danville, CA00:00.0 287305  680 Webcor/Alto Velo
20549.27Rusty Stapp   Pleasanton, CA00:00.0 287480  690 Tri Valley Velo
21557.41Harun Simbirdi   Clayton, CA00:00.0 302985  686 Taleo Racing
22Scott PETTETT   00:00.0  679 
23Jim CROCKER   00:00.0  637 
24581.85Daniel Leitner   Riverbank, CA00:00.0 289092  665 Fun Sport Bikes Cycling Team
25590.00Mark Skrivanich   Walnut Creek, CA00:00.0 256112  688 Taleo Racing
DNSMark Cusick   Elk Grove, CA00:00.0 205419  643 Rio Strada Racing
DNSJim Elam   Mustang, OK00:00.0 273123  649 
DNSJames Good   Oakland, CA00:00.0 254097  661 Taleo Racing
DNSPaul Lennon   Redding, CA00:00.0 20897  666 Owens Healthcare
DNSFrank Lunceford Sr   El Dorado Hills, CA00:00.0 273343  669 Bicycle Planet
DNSBrian Prahl   Sacaramento, CA00:00.0 305088  681 Sacramento Golden Wheelmen
DNSAdam Pressman   Redding, CA00:00.0 40855  682 Owens Healthcare
DNSMark Smallwood   Modesto, CA00:00.0 304897  689 Fun Sports Bikes Cycling Team
DNSOsvaldo Tomatis   Elk Grove, CA00:00.0 220373  692 sport and spine pt
DNSJim Volsansky   San Ramon, CA00:00.0 203442  694 Tri Valley Velo
DNPPatrick Logan   San Ramon, CA00:00.0 242583  667 Third Pillar
DNPWill Parks   Oakland00:00.0 274034  677 NA
DNPDevinderjit Singh   Yuba City, CA00:00.0 296818  687 DAVIS BIKE CLUB
DNPGilbert Tarin   Knightsen, CA00:00.0 252241  691 Taleo Racing
DNPTroy Underwood   Rancho Cordova, CA00:00.0 238691  693 Sacramento Golden Wheelmen
DNFMichael Beyers   Danville, CA00:00.0 304408  631 Tri_Valley Velo
DNFDave Dunkley   Clayton, CA00:00.0 195560  647 Wells Fargo Racing Team
DNFBob Ehardt   Orangevale, CA00:00.0 286992  648 Bicycle Planet
DNFScott Herman   Carson City, NV00:00.0 255513  663 Kinetic Cycles / GBI
DNFMark Nichols   Alamo, CA00:00.0 83106  675 Wells Fargo Racing Team
DNFMarsh Oakes (Cat5)   Cameronpark, CA00:00.0 307551  676 Bicycle Planet
DNFRob Robinson   Castro Valley, CA00:00.0 271386  684 Taleo Racing
DNFSteve Rosefield   Pleasanton, CA00:00.0 298343  685 Tri Valley Velo

Men - Cat1/2/3 - Master - 35-99

 Place Points NameCity, StateTime USAC #BibTeam
1Kerry Stockwell   Folsom, CA00:00.0 34228  374 Folsom Bike
2Leslie Oglesby   Salinas, CA00:00.0 53661  372 Joselyn's Bicycles
DNSTodd Dodds   Redding, CA00:00.0 204936  370 Owens Healthcare
DNSRoger Hogan   Fresno, CA00:00.0 285192  371 California Giant Cycling
DNSShelley Olds   Gilroy, CA00:00.0 226087  373 Proman Hit Squad

Men - Cat1/2/3 - Master - 45-99

 Place Points NameCity, StateTime USAC #BibTeam
1287.67Dirk Himley   San Jose, CA00:00.0 86797  576 Echelon Gran Fondo/Zteam
2300.17Fred Schnaars   Davis, CA00:00.0 65032  575 Davis Bike Club
3312.66Scott Wienker   Davis, CA00:00.0 290904  596 Davis Bike Club
4325.15Cale Reeder   Cameron Park, CA00:00.0 272237  590 Echelon Gran Fondo/Zteam
5337.64Chris Courtney   Oakdale, CA00:00.0 47303  581 SJBC
6350.13Mark Robertson   Oakland, CA00:00.0 237380  593 Taleo Racing
7362.62Ken Hill   Woodland, CA00:00.0 274292  583 Davis Bike Club
8375.12Joe McCrummen   Brentwood, CA00:00.0 23350  585 Taleo Racing
9387.61Peter Krogh   Nevada City, CA00:00.0 177339  579 Sert-ShoAir
10400.10Kevin Willitts   S Lake Tahoe, CA00:00.0 192774  597 Team Bicycles Plus/Sierra Neva
11412.59Mike Nissen   Livermore, CA00:00.0 296024  588 Taleo Racing
12425.08Tony Reid   Sacramento, CA00:00.0 29458  591 SAFEWAY/Bicycles Plus/PureRed
13437.57Peter Allen   Fair Oaks, CA00:00.0 46996  580 SAFEWAY/Bicycles Plus/PureRed
14450.06Eric LaFranchi   Calistoga, CA00:00.0 199575  584 ThirstyBear Cycling
15462.56Nabil Samaan   Fair Oaks, CA00:00.0 177518  577 Kinetic Cycles/gbi
16475.05Rod Fernandez   Dixon, CA00:00.0 265576  582 Davis Bike Club Race Team
17487.54Frank Winters   Susanville, CA00:00.0 54032  598 RENO WHEELMEN
18500.03David Montgomery   Olympic Valley, CA00:00.0 302935  587 Truckee Bicycle Team
DNSKarl Schilling   San Jose, CA00:00.0 47556  594 Los Gatos
DNSJohn Steggall   Davis, CA00:00.0 135891  595 Davis Bike Club Race Team
DNPHunter Ziesing   Bel Tiburon, CA00:00.0 39478  599 Echelon Gran Fondo/ZteaM
DNFMax Thompson   San Anselmo, CA00:00.0 80642  578 VOS Racing
DNFLee Millon   Winters, CA00:00.0 254073  586 Davis Bike Club Race Team
DNFJess Raphael   Napa, CA00:00.0 221460  589 SAFEWAY/Bicycles Plus/PureRed

Men - Cat 5

 Place Points NameCity, StateTime USAC #BibTeam
1537.64David Grundman   Davis, CA00:00.0 240540  505 
2546.37Sean Molina   Chico, CA00:00.0 308804  501 Chico Corsa Cycling Club
3555.09Ron Rawson   Orinda, CA00:00.0 306491  508 
4563.82Sean Gilson   Sacramento, CA00:00.0 321722  504 
5572.55Justin Romney   Placerville, CA00:00.0 310997  509 Victory Velo
6581.27Gabriel Garroni   Mc Kinney, TX00:00.0 280689  510 Rio Strada Racing
7590.00Matthew Hough   Loveland, OH00:00.0 173976  506 Mission Cycling
DNSJordan ANDERSON   00:00.0  500 
DNSPeter Giese   San Francisco, CA00:00.0 323018  503 
DNSChris Martinez   Hercules, CA00:00.0 279813  507 Berkeley Bicycle Club (BBC)
DNFVitaly Gashpar   San Francisco, CA00:00.0 273905  502 Colavita Chicagoland

Men - Cat 5 - Master - 35-99

 Place Points NameCity, StateTime USAC #BibTeam
1530.78Paul Higley   Redding, CA00:00.0 324504  493 
2Paul KEMPLER   00:00.0  488 
3Noah CAMPBELL-LUND   00:00.0  489 
4550.52John Depew   El Dorado Hills, CA00:00.0 304092  492 Body Concepts
5557.10Atac Tuli   Davis, CA00:00.0 277938  497 Davis Bike Club Race Team
6563.68Alan Hitch   Woodland, CA00:00.0 298754  494 Davis Bike Club Race Team
7570.26Mike Munoz   Cameronpark, CA00:00.0 307140  496 Revolutions
8576.84Jason Tyler   Auburn, CA00:00.0 320982  498 
9Felix JARAMILLO   00:00.0  495 Body Concepts
10590.00Michael Webb   El Dorado Hills, CA00:00.0 305939  499 Team Revolutions
DNSKenny Bailey   Folsom, CA00:00.0 305104  490 Body Concepts
DNPJeff Bostrom   Nevada City, CA00:00.0 325282  491 Sert/ Sho-air

Men - Cat 4

 Place Points NameCity, StateTime USAC #BibTeam
1501.26Joshua Lopez   Alamo, CA00:00.0 305647  201 Los Gatos
2512.02Oliver Weiss   Roseville, CA00:00.0 79603  210 Rio Strada Racing
3522.78corey duren   Chico, CA00:00.0 320490  211 Chico Corsa
4533.54Peter Unruh   Calistoga, CA00:00.0 110667  208 
5544.31adam thatcher   Chico, CA00:00.0 311983  206 Chico Corsa
6555.07Raoul MartinBlouin   Walnut Creek, CA00:00.0 303631  202 Taleo Racing
7565.83Greg Tsutaoka   Oakland, CA00:00.0 296665  207 Berkeley Bike Club (BBC)
8576.59Jesse Rushing   Chico, CA00:00.0 284268  205 Chico Corsa
9587.35Jon Keyzer   Fort Collins, CO00:00.0 298334  200 Chico Corsa
DNSOscar Nunez   Menlo Park, CA00:00.0 220085  203 Berkeley Bicycle Club
DNSIvan Poddubnyy   San Jose, CA00:00.0 266310  204 Webcor/AltoVelo
DNSGerman Villa   San Lorenzo, CA00:00.0 224232  209 Berkeley Bicycle Club (BBC)
DNFEamonn Gormley   Sunnyvale, CA00:00.0 282501  212 Los Gatos

Men - Cat 4 - Master - 35-99

 Place Points NameCity, StateTime USAC #BibTeam
1456.18Jonathan Pettengill   Reno, NV00:00.0 287637  426 Kryki Sports
2462.33Chris Callahan   Alamo, CA00:00.0 242571  402 Wells Fargo Racing Team
3468.48Rick Lawton   Pleasanton, CA00:00.0 141309  411 Wells Fargo Racing Team
4474.64Richard Nichols   Danville, CA00:00.0 286421  414 Tri Valley Velo
5480.79Ryan Lenhardt   San Ramon, CA00:00.0 20890  412 Taleo Racing
6486.94Shawn Overholtzer   Modesto, CA00:00.0 229420  423 Fun Sport Bikes Cycling Team
7493.09Paul Mitchell   Sacramento, CA00:00.0 220645  424 Davis
8499.24AdamVanMinh Martin   Antioch, CA00:00.0 57185  413 Tri Valley Velo
9505.40Chris Hernikl   Pleasant Hill, CA00:00.0 304027  408 Taleo Racing
10511.55Matt Luckenbach   El Dorado Hills, CA00:00.0 123967  425 Revolution
11517.70John Collins   Folsom, CA00:00.0 231774  422 Team Revolutions
12523.85Jeffrey Weaver   Sacramento, CA00:00.0 290926  420 Davis Bike Club
13530.00Andreas Schulten   Cameron Park, CA00:00.0 248096  416 Bicycle Planet
14536.16Michael Simos   Redwood City, CA00:00.0 271296  417 Los Gatos
15542.31Michele Brocato   Lafayette, CA00:00.0 177046  421 Tri Valley Velo
16548.46Kevin Denison   El Dorado Hills, CA00:00.0 303642  406 Team Mad Cat
17554.61Nathan Trueblood   Davis, CA00:00.0 35982  418 Davis Bike Club
18560.76J Clifford   Roseville, CA00:00.0 232661  403 Taleo Racing
19566.92Hendrik (Erik) Hofman   Danville, CA00:00.0 285592  410 Tri Valley Velo
DNSRick Berry   Kingsburg, CA00:00.0 271131  400 Rubber Soul/CSC Racing Team
DNSFrancis Goldsberry   Sacramento, CA00:00.0 132927  407 Sacramento Golden Wheelmen
DNSJohn Pauley   Redwood City, CA00:00.0 27452  415 CoreTechs Cycling Team
DNPDavid Dalton   Danville, CA00:00.0 287122  405 Tri Valley Velo
DNPEric Hess   Windsor, CA00:00.0 16032  409 
DNPMark Wallis   Danville, CA00:00.0 304606  419 Taleo Racing

Men - Cat 3

 Place Points NameCity, StateTime USAC #BibTeam
1371.09Cameron Barnes   Santa Cruz, CA00:00.0 319652  142 Unattached
2382.56Michael Painter   Chico Ca00:00.0 289184  138 Chico Corsa Cycling Club
3394.03scott heather   Chico, CA00:00.0 306577  132 Chico Corsa
4405.49Kirk Evans   Sacramento, CA00:00.0 259534  130 Team Becher+
5416.96Scott Cole   Oakland, CA00:00.0 199614  129 Third Pillar
6428.43Stephen Starr   Rohnert Park, CA00:00.0 305188  140 Team NorCal Bike Sport
7439.90Gareth Feldstein   Bakersfield, CA00:00.0 240935  141 Ritte Racing
8451.36Murat Ozgur   Los Altos, CA00:00.0 41335  137 Squadra Ovest Cycling
9462.83Joshua Bullock   Sacramento, CA00:00.0 153414  128 Chico Corsa/Sierra Nevada
10474.30Robert Orcutt   Scotts Valley, CA00:00.0 269340  136 Webcor/Alto Velo
11485.77Ryan MacDonald   Martinez, CA00:00.0 160274  135 Well's Fargo Racing Team
12497.23Anthony Ferretti   Oroville, CA00:00.0 283185  131 Chico Corsa
13508.70Kashy Ghazzagh   Santa Rosa, CA00:00.0 295719  111 Team Norcal Bike Sport
DNSJustin Ishida   Berkeley, CA00:00.0 274183  133 
DNSJ Lemons   Hanford, CA00:00.0 274625  134 Rubber Soul/CSC Racing Team
DNSGreg Tripoli   Hanford, CA00:00.0 281420  139 Rubber Soul/CSC Racing Team

Men - Pro/Cat 1/2

 Place Points NameCity, StateTime USAC #BibTeam
1196.22Eric Riggs   Antelope, CA00:00.0 191302  
2217.14Jesse Moore   Sacramento, CA00:00.0 204739  12 California Giant Berry Farms/S
3238.05Michael Jasinski   Rocklin, CA00:00.0 269476  Chico Corsa Cycling Club
4258.97Sean McBride   Oakland, CA00:00.0 190591  13 TEAM CLIF BAR Cycling
5279.88Peter Nicholson   Mill Valley00:00.0 219558  Whole Athlete/ NorCal Bike Spo
6300.80James Hardy   Oakland, CA00:00.0 80116  14 Kaiser Permanente/ Team Oaklan
7321.71Patrick McClurg   Citrus Heights, CA00:00.0 48984  16 Vitamin Water / Folsom Bike
8342.63Collin Samaan (1 - Cat1)   Fair Oaks, CA00:00.0 196233  Wells Fargo Racing
9363.54Christopher Baumann   Sacramento, CA00:00.0 53271  17 Scott Valley Velo
10384.46Robert Van Kirk   Ashton, ID00:00.0 48499  ICE /ID Kidney Inst/ SE ID Gas
11405.37Nathan Freed   Tahoe City, CA00:00.0 86484  10 TEAM CLIF BAR Cycling
12426.29Travis T   San Francisco, CA00:00.0 158451  11 Metromint Cycling
13447.20Bo Hebenstreit   Campbell, CA00:00.0 196276  15 Webcor/Alto Velo
14468.12Thomas Novikoff (1 - Cat2)   San Jose, CA00:00.0 141331  Webcor/Alto Velo
DNPJohn Bergmann   Albany, CA00:00.0 187522  Team Clif Bar
DNPDylan Clark (Cat2)   Auburn, CA00:00.0 243069  
DNPMichael Jacques   Portola Valley, CA00:00.0 72022  Team Clif Bar

Men - Master - 55-99

 Place Points NameCity, StateTime USAC #BibTeam
1382.22Mac Carey   Pleasant Hill, CA00:00.0 249301  789 Taleo Racing
2400.22Thomas McDonough   Ukiah, CA00:00.0 68163  795 Fightin' Bobas
3418.23Franz Broz   Pebble Beach, CA00:00.0 155801  788 VOS Racing
4436.23Alfred Kerr   Willits, CA00:00.0 262541  794 Fightin' Bobas
5454.24Dana Farmer   Gold River, CA00:00.0 150815  793 VOS-Racing
6472.24Peter Meyer   Mount Aukum, CA00:00.0 219925  797 Bicycle Planet
7490.25Joseph Storm   Alamo00:00.0 304801  798 Taleo Racing
8508.25John Witkowicki   Sonoma, CA00:00.0 322286  799 Team Norcal Bike Sport
9526.26Kevin McSpadden   Woodland, CA00:00.0 23838  796 Davis Bike Club Masters
10544.26Bob Ebe   Lafayette, CA00:00.0 229180  791 Taleo Racing
11562.27Frederick Proudman   Foley, AL00:00.0 46135  787 Taleo Racing
DNSGreg Bollella   Redwood City, CA00:00.0 235126  792 Webcor / Alto Velo
DNFChristopher Kolm   Moraga, CA00:00.0 254578  790 Taleo Racing

Women - Cat1/2/3

 Place Points NameCity, StateTime USAC #BibTeam
1281.06Mary Elizabeth Maroon   Sacramento, CA00:00.0 219555  885 Touchstone Climbing
2340.24Molly Van Houweling   Berkeley, CA00:00.0 201051  881 Metromint Cycling
3399.42Emily Matheu   Oakland, CA00:00.0 277109  882 Third Pillar
4458.60Lauraleen Fenech   San Francisco, CA00:00.0 224272  883 Bici Sport
DNFChristine Sodaro   Tiburon, CA00:00.0 295205  884 Colavita Racing

Women - Cat 4

 Place Points NameCity, StateTime USAC #BibTeam
1512.08Lisa Hern   Los Gatos, CA00:00.0 258499  939 Unattached
2519.16Ellen Evans   Sacramento, CA00:00.0 310883  966 Davis Bike Club Race Team
3526.25Michele Feikert   Davis, CA00:00.0 286411  967 Davis Bike Club
4533.33Yuko Soneoka   Sacramento, CA00:00.0 305096  972 Early Bird Women's Development
5540.41Maryann Schrupp   Reno, NV00:00.0 288460  971 Lenovo
6547.50Deanna McKenzie   Santarosa, CA00:00.0 303472  970 Early Bird Womens Developmenta
7Karen HUTCHINS   00:00.0  969 
8561.67Kaya Cohn   El Cerrito, CA00:00.0 298978  965 Metromint Cycling
9568.75Kristen Hill   Woodland, CA00:00.0 306378  968 Davis Bike Club Race Team
10575.83Pamela Spencer   Sacramento, CA00:00.0 305466  973 Team Revolutions
11582.92Aliya Traficante   Chico, CA00:00.0 310825  974 
12590.00Lori Walsh   San Jose, CA00:00.0 298981  975 Velo Girls
DNPKeila Classen   Palo Alto, CA00:00.0 239635  964 Ohana Sport
DNFAmanda ROBINSON   00:00.0  913 

Report missing or incorrect license numbers

Volkswagen
Bonk BreakerSpyShimanoUSACDFSierra Nevada
UCI USA Cycling is the official governing body for all disciplines of competitive cycling in the United States. The 501c3, membership-based organization aims both to achieve sustained success in international cycling competition and to grow competitive cycling in America while delivering an exceptional customer experience.
View Children's Online Privacy Protection Policy
US Olympic Committee